sensor_id;sensor_type;location;lat;lon;timestamp;pressure;altitude;pressure_sealevel;temperature;humidity
5062;BME280;2351;50.812;12.872;2023-09-18T00:00:01;97635.78;;;19.36;66.23
5062;BME280;2351;50.812;12.872;2023-09-18T00:02:34;97628.13;;;19.33;66.36
5062;BME280;2351;50.812;12.872;2023-09-18T00:05:07;97623.22;;;19.36;66.43
5062;BME280;2351;50.812;12.872;2023-09-18T00:07:40;97619.31;;;19.39;66.98
5062;BME280;2351;50.812;12.872;2023-09-18T00:10:12;97618.31;;;19.47;67.33
5062;BME280;2351;50.812;12.872;2023-09-18T00:12:43;97619.41;;;19.52;67.32
5062;BME280;2351;50.812;12.872;2023-09-18T00:15:15;97612.78;;;19.55;67.51
5062;BME280;2351;50.812;12.872;2023-09-18T00:17:47;97610.13;;;19.55;67.62
5062;BME280;2351;50.812;12.872;2023-09-18T00:20:18;97608.06;;;19.57;67.65
5062;BME280;2351;50.812;12.872;2023-09-18T00:22:51;97611.78;;;19.56;67.70
5062;BME280;2351;50.812;12.872;2023-09-18T00:25:23;97609.47;;;19.53;67.83
5062;BME280;2351;50.812;12.872;2023-09-18T00:27:55;97614.44;;;19.49;67.85
5062;BME280;2351;50.812;12.872;2023-09-18T00:30:27;97604.09;;;19.46;67.80
5062;BME280;2351;50.812;12.872;2023-09-18T00:32:58;97608.16;;;19.35;67.83
5062;BME280;2351;50.812;12.872;2023-09-18T00:35:30;97599.56;;;19.18;68.12
5062;BME280;2351;50.812;12.872;2023-09-18T00:38:03;97593.03;;;18.99;68.36
5062;BME280;2351;50.812;12.872;2023-09-18T00:40:37;97591.84;;;18.80;68.73
5062;BME280;2351;50.812;12.872;2023-09-18T00:43:09;97595.41;;;18.65;69.14
5062;BME280;2351;50.812;12.872;2023-09-18T00:45:44;97599.03;;;18.58;69.35
5062;BME280;2351;50.812;12.872;2023-09-18T00:48:17;97595.03;;;18.47;69.91
5062;BME280;2351;50.812;12.872;2023-09-18T00:50:49;97599.03;;;18.36;70.21
5062;BME280;2351;50.812;12.872;2023-09-18T00:53:23;97584.13;;;18.27;71.57
5062;BME280;2351;50.812;12.872;2023-09-18T00:56:00;97584.44;;;18.17;71.91
5062;BME280;2351;50.812;12.872;2023-09-18T00:58:32;97571.16;;;18.09;71.99
5062;BME280;2351;50.812;12.872;2023-09-18T01:01:04;97568.59;;;18.00;72.68
5062;BME280;2351;50.812;12.872;2023-09-18T01:03:36;97557.97;;;17.92;72.92
5062;BME280;2351;50.812;12.872;2023-09-18T01:06:08;97553.22;;;17.87;73.28
5062;BME280;2351;50.812;12.872;2023-09-18T01:08:41;97555.25;;;17.85;73.61
5062;BME280;2351;50.812;12.872;2023-09-18T01:11:21;97543.25;;;17.81;73.72
5062;BME280;2351;50.812;12.872;2023-09-18T01:14:02;97547.31;;;17.77;74.07
5062;BME280;2351;50.812;12.872;2023-09-18T01:16:40;97546.03;;;17.73;74.39
5062;BME280;2351;50.812;12.872;2023-09-18T01:19:13;97539.38;;;17.69;74.63
5062;BME280;2351;50.812;12.872;2023-09-18T01:21:45;97531.91;;;17.64;74.98
5062;BME280;2351;50.812;12.872;2023-09-18T01:24:18;97533.13;;;17.61;75.04
5062;BME280;2351;50.812;12.872;2023-09-18T01:26:50;97522.53;;;17.53;75.21
5062;BME280;2351;50.812;12.872;2023-09-18T01:29:22;97520.59;;;17.47;76.03
5062;BME280;2351;50.812;12.872;2023-09-18T01:31:54;97526.72;;;17.41;76.74
5062;BME280;2351;50.812;12.872;2023-09-18T01:34:28;97524.94;;;17.33;76.90
5062;BME280;2351;50.812;12.872;2023-09-18T01:37:04;97521.16;;;17.27;77.58
5062;BME280;2351;50.812;12.872;2023-09-18T01:39:39;97522.94;;;17.20;78.29
5062;BME280;2351;50.812;12.872;2023-09-18T01:42:11;97523.84;;;17.12;78.34
5062;BME280;2351;50.812;12.872;2023-09-18T01:44:43;97521.94;;;17.06;78.89
5062;BME280;2351;50.812;12.872;2023-09-18T01:47:17;97520.63;;;17.02;79.08
5062;BME280;2351;50.812;12.872;2023-09-18T01:49:49;97510.31;;;16.99;79.46
5062;BME280;2351;50.812;12.872;2023-09-18T01:52:21;97518.69;;;16.96;79.52
5062;BME280;2351;50.812;12.872;2023-09-18T01:54:54;97516.34;;;16.93;79.97
5062;BME280;2351;50.812;12.872;2023-09-18T01:57:26;97516.91;;;16.88;80.29
5062;BME280;2351;50.812;12.872;2023-09-18T01:59:58;97521.78;;;16.84;80.37
5062;BME280;2351;50.812;12.872;2023-09-18T02:02:29;97524.63;;;16.83;80.62
5062;BME280;2351;50.812;12.872;2023-09-18T02:05:01;97515.97;;;16.81;80.73
5062;BME280;2351;50.812;12.872;2023-09-18T02:07:33;97504.81;;;16.77;80.98
5062;BME280;2351;50.812;12.872;2023-09-18T02:10:08;97503.34;;;16.75;81.21
5062;BME280;2351;50.812;12.872;2023-09-18T02:12:39;97503.50;;;16.73;81.40
5062;BME280;2351;50.812;12.872;2023-09-18T02:15:11;97493.19;;;16.70;81.78
5062;BME280;2351;50.812;12.872;2023-09-18T02:17:43;97492.38;;;16.69;82.13
5062;BME280;2351;50.812;12.872;2023-09-18T02:20:14;97486.19;;;16.69;82.21
5062;BME280;2351;50.812;12.872;2023-09-18T02:22:48;97479.84;;;16.70;82.36
5062;BME280;2351;50.812;12.872;2023-09-18T02:25:21;97479.19;;;16.68;82.58
5062;BME280;2351;50.812;12.872;2023-09-18T02:27:53;97477.91;;;16.64;82.66
5062;BME280;2351;50.812;12.872;2023-09-18T02:30:25;97471.63;;;16.56;82.92
5062;BME280;2351;50.812;12.872;2023-09-18T02:32:57;97470.69;;;16.49;83.12
5062;BME280;2351;50.812;12.872;2023-09-18T02:35:29;97473.72;;;16.46;83.21
5062;BME280;2351;50.812;12.872;2023-09-18T02:38:01;97470.59;;;16.42;83.48
5062;BME280;2351;50.812;12.872;2023-09-18T02:40:34;97469.78;;;16.42;83.86
5062;BME280;2351;50.812;12.872;2023-09-18T02:43:06;97474.81;;;16.37;83.92
5062;BME280;2351;50.812;12.872;2023-09-18T02:45:39;97470.84;;;16.33;84.04
5062;BME280;2351;50.812;12.872;2023-09-18T02:48:11;97471.56;;;16.26;84.34
5062;BME280;2351;50.812;12.872;2023-09-18T02:50:43;97462.44;;;16.21;84.48
5062;BME280;2351;50.812;12.872;2023-09-18T02:53:18;97461.31;;;16.15;84.70
5062;BME280;2351;50.812;12.872;2023-09-18T02:55:52;97462.69;;;16.11;84.79
5062;BME280;2351;50.812;12.872;2023-09-18T02:58:25;97467.38;;;16.09;85.21
5062;BME280;2351;50.812;12.872;2023-09-18T03:00:59;97454.38;;;16.06;85.36
5062;BME280;2351;50.812;12.872;2023-09-18T03:03:33;97457.25;;;16.04;85.73
5062;BME280;2351;50.812;12.872;2023-09-18T03:06:05;97450.03;;;16.05;86.45
5062;BME280;2351;50.812;12.872;2023-09-18T03:08:37;97447.03;;;16.08;86.84
5062;BME280;2351;50.812;12.872;2023-09-18T03:11:13;97442.16;;;16.11;87.25
5062;BME280;2351;50.812;12.872;2023-09-18T03:13:47;97440.13;;;16.14;87.54
5062;BME280;2351;50.812;12.872;2023-09-18T03:16:18;97442.44;;;16.17;87.65
5062;BME280;2351;50.812;12.872;2023-09-18T03:18:50;97435.09;;;16.19;87.89
5062;BME280;2351;50.812;12.872;2023-09-18T03:21:22;97434.19;;;16.26;88.26
5062;BME280;2351;50.812;12.872;2023-09-18T03:23:53;97429.78;;;16.34;88.34
5062;BME280;2351;50.812;12.872;2023-09-18T03:26:26;97426.19;;;16.41;88.79
5062;BME280;2351;50.812;12.872;2023-09-18T03:28:58;97429.81;;;16.49;88.87
5062;BME280;2351;50.812;12.872;2023-09-18T03:31:30;97427.22;;;16.55;89.06
5062;BME280;2351;50.812;12.872;2023-09-18T03:34:02;97433.03;;;16.59;89.25
5062;BME280;2351;50.812;12.872;2023-09-18T03:36:33;97431.00;;;16.61;89.12
5062;BME280;2351;50.812;12.872;2023-09-18T03:39:05;97429.34;;;16.60;89.02
5062;BME280;2351;50.812;12.872;2023-09-18T03:41:38;97429.91;;;16.55;89.27
5062;BME280;2351;50.812;12.872;2023-09-18T03:44:10;97426.13;;;16.50;89.17
5062;BME280;2351;50.812;12.872;2023-09-18T03:46:42;97432.84;;;16.46;89.21
5062;BME280;2351;50.812;12.872;2023-09-18T03:49:13;97428.72;;;16.43;89.46
5062;BME280;2351;50.812;12.872;2023-09-18T03:51:45;97418.75;;;16.37;89.59
5062;BME280;2351;50.812;12.872;2023-09-18T03:54:17;97422.22;;;16.37;89.89
5062;BME280;2351;50.812;12.872;2023-09-18T03:56:50;97416.88;;;16.37;89.80
5062;BME280;2351;50.812;12.872;2023-09-18T03:59:22;97411.75;;;16.36;90.20
5062;BME280;2351;50.812;12.872;2023-09-18T04:01:53;97414.22;;;16.37;90.41
5062;BME280;2351;50.812;12.872;2023-09-18T04:04:25;97407.50;;;16.41;91.38
5062;BME280;2351;50.812;12.872;2023-09-18T04:06:58;97401.53;;;16.54;91.77
5062;BME280;2351;50.812;12.872;2023-09-18T04:09:30;97395.34;;;16.69;91.82
5062;BME280;2351;50.812;12.872;2023-09-18T04:12:03;97386.88;;;16.80;92.22
5062;BME280;2351;50.812;12.872;2023-09-18T04:14:36;97386.91;;;16.95;92.85
5062;BME280;2351;50.812;12.872;2023-09-18T04:17:08;97382.34;;;17.11;92.84
5062;BME280;2351;50.812;12.872;2023-09-18T04:19:39;97381.69;;;17.24;92.58
5062;BME280;2351;50.812;12.872;2023-09-18T04:22:12;97372.34;;;17.35;92.39
5062;BME280;2351;50.812;12.872;2023-09-18T04:24:43;97371.59;;;17.41;92.73
5062;BME280;2351;50.812;12.872;2023-09-18T04:27:16;97366.66;;;17.44;92.72
5062;BME280;2351;50.812;12.872;2023-09-18T04:29:48;97361.00;;;17.54;92.59
5062;BME280;2351;50.812;12.872;2023-09-18T04:32:21;97360.25;;;17.60;92.06
5062;BME280;2351;50.812;12.872;2023-09-18T04:34:53;97348.31;;;17.63;91.81
5062;BME280;2351;50.812;12.872;2023-09-18T04:37:25;97341.75;;;17.66;91.40
5062;BME280;2351;50.812;12.872;2023-09-18T04:39:57;97339.34;;;17.71;91.00
5062;BME280;2351;50.812;12.872;2023-09-18T04:42:30;97336.47;;;17.72;90.97
5062;BME280;2351;50.812;12.872;2023-09-18T04:45:03;97335.63;;;17.72;91.15
5062;BME280;2351;50.812;12.872;2023-09-18T04:47:35;97330.53;;;17.77;90.96
5062;BME280;2351;50.812;12.872;2023-09-18T04:50:08;97328.69;;;17.77;90.76
5062;BME280;2351;50.812;12.872;2023-09-18T04:52:40;97327.66;;;17.79;90.46
5062;BME280;2351;50.812;12.872;2023-09-18T04:55:13;97315.94;;;17.80;90.17
5062;BME280;2351;50.812;12.872;2023-09-18T04:57:47;97314.75;;;17.82;90.00
5062;BME280;2351;50.812;12.872;2023-09-18T05:00:19;97319.72;;;17.85;89.73
5062;BME280;2351;50.812;12.872;2023-09-18T05:02:53;97313.50;;;17.85;89.50
5062;BME280;2351;50.812;12.872;2023-09-18T05:05:25;97311.84;;;17.84;89.40
5062;BME280;2351;50.812;12.872;2023-09-18T05:07:57;97311.84;;;17.84;89.18
5062;BME280;2351;50.812;12.872;2023-09-18T05:10:28;97308.38;;;17.83;88.90
5062;BME280;2351;50.812;12.872;2023-09-18T05:13:03;97299.50;;;17.83;88.64
5062;BME280;2351;50.812;12.872;2023-09-18T05:15:34;97296.19;;;17.81;88.62
5062;BME280;2351;50.812;12.872;2023-09-18T05:18:06;97294.53;;;17.80;88.33
5062;BME280;2351;50.812;12.872;2023-09-18T05:20:39;97297.84;;;17.82;88.20
5062;BME280;2351;50.812;12.872;2023-09-18T05:23:11;97292.47;;;17.82;87.92
5062;BME280;2351;50.812;12.872;2023-09-18T05:25:43;97302.38;;;17.81;87.80
5062;BME280;2351;50.812;12.872;2023-09-18T05:28:16;97298.69;;;17.82;87.82
5062;BME280;2351;50.812;12.872;2023-09-18T05:30:48;97297.84;;;17.82;87.64
5062;BME280;2351;50.812;12.872;2023-09-18T05:33:19;97291.69;;;17.81;87.62
5062;BME280;2351;50.812;12.872;2023-09-18T05:35:51;97287.47;;;17.72;87.32
5062;BME280;2351;50.812;12.872;2023-09-18T05:38:23;97290.91;;;17.66;87.17
5062;BME280;2351;50.812;12.872;2023-09-18T05:40:54;97289.47;;;17.63;87.12
5062;BME280;2351;50.812;12.872;2023-09-18T05:43:27;97280.41;;;17.64;86.67
5062;BME280;2351;50.812;12.872;2023-09-18T05:46:00;97278.13;;;17.61;86.34
5062;BME280;2351;50.812;12.872;2023-09-18T05:48:32;97277.44;;;17.52;86.34
5062;BME280;2351;50.812;12.872;2023-09-18T05:51:04;97278.78;;;17.41;86.30
5062;BME280;2351;50.812;12.872;2023-09-18T05:53:35;97270.28;;;17.31;86.69
5062;BME280;2351;50.812;12.872;2023-09-18T05:56:08;97277.19;;;17.25;87.01
5062;BME280;2351;50.812;12.872;2023-09-18T05:58:41;97263.00;;;17.25;87.28
5062;BME280;2351;50.812;12.872;2023-09-18T06:01:13;97262.63;;;17.28;87.57
5062;BME280;2351;50.812;12.872;2023-09-18T06:03:45;97247.88;;;17.32;87.81
5062;BME280;2351;50.812;12.872;2023-09-18T06:06:17;97248.72;;;17.39;88.31
5062;BME280;2351;50.812;12.872;2023-09-18T06:08:49;97247.38;;;17.50;88.79
5062;BME280;2351;50.812;12.872;2023-09-18T06:11:24;97239.25;;;17.65;89.16
5062;BME280;2351;50.812;12.872;2023-09-18T06:13:57;97238.31;;;17.80;89.47
5062;BME280;2351;50.812;12.872;2023-09-18T06:16:28;97233.34;;;17.98;89.83
5062;BME280;2351;50.812;12.872;2023-09-18T06:19:01;97232.28;;;18.28;90.27
5062;BME280;2351;50.812;12.872;2023-09-18T06:21:33;97216.75;;;18.72;88.36
5062;BME280;2351;50.812;12.872;2023-09-18T06:24:05;97206.75;;;19.21;86.10
5062;BME280;2351;50.812;12.872;2023-09-18T06:26:37;97207.59;;;19.55;85.30
5062;BME280;2351;50.812;12.872;2023-09-18T06:29:10;97215.78;;;19.80;85.21
5062;BME280;2351;50.812;12.872;2023-09-18T06:31:42;97214.53;;;20.03;83.77
5062;BME280;2351;50.812;12.872;2023-09-18T06:34:14;97207.63;;;20.34;80.74
5062;BME280;2351;50.812;12.872;2023-09-18T06:36:45;97214.78;;;20.54;79.91
5062;BME280;2351;50.812;12.872;2023-09-18T06:39:17;97202.88;;;20.75;79.22
5062;BME280;2351;50.812;12.872;2023-09-18T06:41:50;97203.66;;;20.89;74.78
5062;BME280;2351;50.812;12.872;2023-09-18T06:44:23;97200.47;;;21.05;74.71
5062;BME280;2351;50.812;12.872;2023-09-18T06:46:55;97193.06;;;21.26;73.31
5062;BME280;2351;50.812;12.872;2023-09-18T06:49:27;97179.66;;;21.45;72.34
5062;BME280;2351;50.812;12.872;2023-09-18T06:51:59;97185.72;;;21.65;72.11
5062;BME280;2351;50.812;12.872;2023-09-18T06:54:30;97179.75;;;21.82;71.82
5062;BME280;2351;50.812;12.872;2023-09-18T06:57:02;97168.97;;;22.01;71.35
5062;BME280;2351;50.812;12.872;2023-09-18T06:59:36;97168.22;;;22.12;69.36
5062;BME280;2351;50.812;12.872;2023-09-18T07:02:07;97163.19;;;22.16;68.04
5062;BME280;2351;50.812;12.872;2023-09-18T07:04:39;97170.00;;;22.18;68.07
5062;BME280;2351;50.812;12.872;2023-09-18T07:07:15;97165.97;;;22.27;66.75
5062;BME280;2351;50.812;12.872;2023-09-18T07:09:47;97158.94;;;22.26;66.00
5062;BME280;2351;50.812;12.872;2023-09-18T07:12:19;97156.66;;;22.42;66.56
5062;BME280;2351;50.812;12.872;2023-09-18T07:14:52;97157.56;;;22.54;65.27
5062;BME280;2351;50.812;12.872;2023-09-18T07:17:24;97156.13;;;22.52;65.04
5062;BME280;2351;50.812;12.872;2023-09-18T07:19:56;97160.41;;;22.60;63.43
5062;BME280;2351;50.812;12.872;2023-09-18T07:22:28;97159.25;;;22.67;64.69
5062;BME280;2351;50.812;12.872;2023-09-18T07:24:59;97163.28;;;22.89;64.40
5062;BME280;2351;50.812;12.872;2023-09-18T07:27:31;97162.66;;;23.05;63.42
5062;BME280;2351;50.812;12.872;2023-09-18T07:30:06;97153.16;;;23.14;62.07
5062;BME280;2351;50.812;12.872;2023-09-18T07:32:39;97158.06;;;23.17;62.17
5062;BME280;2351;50.812;12.872;2023-09-18T07:35:12;97158.72;;;23.31;62.54
5062;BME280;2351;50.812;12.872;2023-09-18T07:37:45;97170.81;;;23.53;61.57
5062;BME280;2351;50.812;12.872;2023-09-18T07:40:17;97159.19;;;23.64;61.89
5062;BME280;2351;50.812;12.872;2023-09-18T07:42:48;97159.91;;;23.71;61.80
5062;BME280;2351;50.812;12.872;2023-09-18T07:45:22;97160.47;;;23.73;60.84
5062;BME280;2351;50.812;12.872;2023-09-18T07:47:54;97162.47;;;23.66;60.56
5062;BME280;2351;50.812;12.872;2023-09-18T07:50:26;97163.88;;;23.69;60.82
5062;BME280;2351;50.812;12.872;2023-09-18T07:52:58;97168.47;;;23.68;60.47
5062;BME280;2351;50.812;12.872;2023-09-18T07:55:30;97168.47;;;23.68;59.83
5062;BME280;2351;50.812;12.872;2023-09-18T07:58:02;97164.72;;;23.69;59.79
5062;BME280;2351;50.812;12.872;2023-09-18T08:00:36;97162.69;;;23.76;60.11
5062;BME280;2351;50.812;12.872;2023-09-18T08:03:08;97157.63;;;23.92;59.93
5062;BME280;2351;50.812;12.872;2023-09-18T08:05:40;97175.59;;;24.10;59.91
5062;BME280;2351;50.812;12.872;2023-09-18T08:08:12;97191.03;;;24.39;60.38
5062;BME280;2351;50.812;12.872;2023-09-18T08:10:44;97205.03;;;24.76;59.25
5062;BME280;2351;50.812;12.872;2023-09-18T08:13:15;97187.63;;;25.01;58.98
5062;BME280;2351;50.812;12.872;2023-09-18T08:15:49;97189.88;;;25.21;58.04
5062;BME280;2351;50.812;12.872;2023-09-18T08:18:21;97192.34;;;25.40;53.21
5062;BME280;2351;50.812;12.872;2023-09-18T08:20:57;97181.03;;;25.43;53.54
5062;BME280;2351;50.812;12.872;2023-09-18T08:23:28;97186.03;;;25.51;53.85
5062;BME280;2351;50.812;12.872;2023-09-18T08:26:02;97169.69;;;25.63;53.77
5062;BME280;2351;50.812;12.872;2023-09-18T08:28:34;97177.91;;;25.68;53.55
5062;BME280;2351;50.812;12.872;2023-09-18T08:31:12;97177.22;;;25.78;53.61
5062;BME280;2351;50.812;12.872;2023-09-18T08:33:44;97181.97;;;25.88;53.13
5062;BME280;2351;50.812;12.872;2023-09-18T08:36:16;97182.22;;;25.86;51.40
5062;BME280;2351;50.812;12.872;2023-09-18T08:38:47;97186.75;;;25.81;52.31
5062;BME280;2351;50.812;12.872;2023-09-18T08:41:20;97185.91;;;25.80;51.80
5062;BME280;2351;50.812;12.872;2023-09-18T08:43:52;97190.28;;;25.81;52.02
5062;BME280;2351;50.812;12.872;2023-09-18T08:46:27;97187.38;;;25.88;49.96
5062;BME280;2351;50.812;12.872;2023-09-18T08:49:00;97190.59;;;25.85;50.14
5062;BME280;2351;50.812;12.872;2023-09-18T08:51:33;97186.75;;;25.81;48.82
5062;BME280;2351;50.812;12.872;2023-09-18T08:54:05;97188.88;;;25.79;49.26
5062;BME280;2351;50.812;12.872;2023-09-18T08:56:37;97185.69;;;25.82;49.07
5062;BME280;2351;50.812;12.872;2023-09-18T08:59:09;97183.78;;;25.82;48.48
5062;BME280;2351;50.812;12.872;2023-09-18T09:01:45;97183.53;;;25.84;48.74
5062;BME280;2351;50.812;12.872;2023-09-18T09:04:17;97173.03;;;25.88;49.02
5062;BME280;2351;50.812;12.872;2023-09-18T09:06:48;97167.00;;;26.02;48.96
5062;BME280;2351;50.812;12.872;2023-09-18T09:09:20;97157.94;;;26.14;48.32
5062;BME280;2351;50.812;12.872;2023-09-18T09:11:52;97166.59;;;26.33;48.34
5062;BME280;2351;50.812;12.872;2023-09-18T09:14:24;97171.16;;;26.55;48.09
5062;BME280;2351;50.812;12.872;2023-09-18T10:56:26;97156.88;;;28.00;44.22
5062;BME280;2351;50.812;12.872;2023-09-18T10:58:58;97159.59;;;28.00;43.46
5062;BME280;2351;50.812;12.872;2023-09-18T11:01:31;97161.13;;;27.86;43.45
5062;BME280;2351;50.812;12.872;2023-09-18T11:04:04;97150.47;;;27.69;43.27
5062;BME280;2351;50.812;12.872;2023-09-18T11:07:01;97158.00;;;27.61;43.42
5062;BME280;2351;50.812;12.872;2023-09-18T11:09:42;97151.19;;;27.54;43.76
5062;BME280;2351;50.812;12.872;2023-09-18T11:12:16;97150.81;;;27.45;44.09
5062;BME280;2351;50.812;12.872;2023-09-18T11:14:50;97151.91;;;27.44;43.85
5062;BME280;2351;50.812;12.872;2023-09-18T11:17:32;97151.41;;;27.47;43.50
5062;BME280;2351;50.812;12.872;2023-09-18T11:20:09;97151.19;;;27.54;43.52
5062;BME280;2351;50.812;12.872;2023-09-18T11:22:47;97152.06;;;27.64;43.30
5062;BME280;2351;50.812;12.872;2023-09-18T11:25:46;97148.03;;;27.72;43.58
5062;BME280;2351;50.812;12.872;2023-09-18T11:28:25;97160.81;;;27.77;43.19
5062;BME280;2351;50.812;12.872;2023-09-18T11:30:58;97154.34;;;27.83;43.19
5062;BME280;2351;50.812;12.872;2023-09-18T11:33:35;97158.41;;;27.86;43.01
5062;BME280;2351;50.812;12.872;2023-09-18T11:36:09;97159.69;;;27.73;42.31
5062;BME280;2351;50.812;12.872;2023-09-18T11:38:53;97163.44;;;27.61;42.69
5062;BME280;2351;50.812;12.872;2023-09-18T11:41:26;97164.91;;;27.42;43.11
5062;BME280;2351;50.812;12.872;2023-09-18T11:44:35;97166.19;;;27.29;43.34
5062;BME280;2351;50.812;12.872;2023-09-18T11:47:12;97166.09;;;27.18;44.23
5062;BME280;2351;50.812;12.872;2023-09-18T11:49:48;97171.13;;;27.04;44.88
5062;BME280;2351;50.812;12.872;2023-09-18T11:52:25;97180.56;;;26.97;45.23
5062;BME280;2351;50.812;12.872;2023-09-18T11:54:58;97178.63;;;26.92;45.65
5062;BME280;2351;50.812;12.872;2023-09-18T11:57:35;97172.06;;;26.88;45.59
5062;BME280;2351;50.812;12.872;2023-09-18T12:00:19;97184.19;;;26.80;45.52
5062;BME280;2351;50.812;12.872;2023-09-18T12:02:54;97178.88;;;26.68;45.65
5062;BME280;2351;50.812;12.872;2023-09-18T12:05:26;97178.59;;;26.65;45.87
5062;BME280;2351;50.812;12.872;2023-09-18T12:07:58;97178.78;;;26.58;45.94
5062;BME280;2351;50.812;12.872;2023-09-18T12:10:29;97182.50;;;26.52;46.26
5062;BME280;2351;50.812;12.872;2023-09-18T12:13:05;97180.31;;;26.49;46.17
5062;BME280;2351;50.812;12.872;2023-09-18T12:15:40;97186.94;;;26.36;46.58
5062;BME280;2351;50.812;12.872;2023-09-18T12:18:13;97197.72;;;26.30;47.13
5062;BME280;2351;50.812;12.872;2023-09-18T12:20:46;97195.50;;;26.27;47.33
5062;BME280;2351;50.812;12.872;2023-09-18T12:23:18;97204.72;;;26.26;47.61
5062;BME280;2351;50.812;12.872;2023-09-18T12:25:57;97200.63;;;26.24;47.85
5062;BME280;2351;50.812;12.872;2023-09-18T12:28:30;97207.13;;;26.23;47.91
5062;BME280;2351;50.812;12.872;2023-09-18T12:31:03;97198.66;;;26.19;48.28
5062;BME280;2351;50.812;12.872;2023-09-18T12:33:37;97203.75;;;26.15;48.47
5062;BME280;2351;50.812;12.872;2023-09-18T12:36:09;97200.97;;;26.10;48.55
5062;BME280;2351;50.812;12.872;2023-09-18T12:38:55;97197.69;;;26.08;48.90
5062;BME280;2351;50.812;12.872;2023-09-18T12:41:27;97193.34;;;26.07;49.38
5062;BME280;2351;50.812;12.872;2023-09-18T12:44:01;97192.28;;;26.08;49.71
5062;BME280;2351;50.812;12.872;2023-09-18T12:46:35;97197.13;;;26.06;49.85
5062;BME280;2351;50.812;12.872;2023-09-18T12:49:18;97197.13;;;26.06;50.33
5062;BME280;2351;50.812;12.872;2023-09-18T12:51:56;97196.84;;;26.08;50.71
5062;BME280;2351;50.812;12.872;2023-09-18T12:54:43;97201.22;;;26.09;52.04
5062;BME280;2351;50.812;12.872;2023-09-18T12:57:16;97201.16;;;26.04;51.50
5062;BME280;2351;50.812;12.872;2023-09-18T12:59:47;97192.94;;;25.98;51.74
5062;BME280;2351;50.812;12.872;2023-09-18T13:02:23;97195.78;;;25.86;51.53
5062;BME280;2351;50.812;12.872;2023-09-18T13:04:55;97204.88;;;25.80;51.42
5062;BME280;2351;50.812;12.872;2023-09-18T13:07:29;97207.19;;;25.71;51.11
5062;BME280;2351;50.812;12.872;2023-09-18T13:10:06;97212.34;;;25.73;51.17
5062;BME280;2351;50.812;12.872;2023-09-18T13:12:41;97222.69;;;25.76;51.31
5062;BME280;2351;50.812;12.872;2023-09-18T13:15:13;97224.34;;;25.77;51.60
5062;BME280;2351;50.812;12.872;2023-09-18T13:17:46;97231.91;;;25.75;52.29
5062;BME280;2351;50.812;12.872;2023-09-18T13:20:21;97237.25;;;25.70;52.79
5062;BME280;2351;50.812;12.872;2023-09-18T13:22:56;97244.47;;;25.64;52.70
5062;BME280;2351;50.812;12.872;2023-09-18T13:25:30;97239.88;;;25.48;52.71
5062;BME280;2351;50.812;12.872;2023-09-18T13:28:06;97243.06;;;25.45;52.60
5062;BME280;2351;50.812;12.872;2023-09-18T13:30:39;97252.41;;;25.37;52.61
5062;BME280;2351;50.812;12.872;2023-09-18T13:33:16;97261.41;;;25.25;53.15
5062;BME280;2351;50.812;12.872;2023-09-18T13:35:49;97256.56;;;25.10;53.19
5062;BME280;2351;50.812;12.872;2023-09-18T13:38:21;97271.03;;;25.04;53.48
5062;BME280;2351;50.812;12.872;2023-09-18T13:40:53;97270.03;;;24.93;53.82
5062;BME280;2351;50.812;12.872;2023-09-18T13:43:25;97259.50;;;24.80;54.02
5062;BME280;2351;50.812;12.872;2023-09-18T13:45:58;97268.00;;;24.72;53.85
5062;BME280;2351;50.812;12.872;2023-09-18T13:48:31;97272.84;;;24.46;53.47
5062;BME280;2351;50.812;12.872;2023-09-18T13:51:04;97280.03;;;24.28;54.58
5062;BME280;2351;50.812;12.872;2023-09-18T13:53:35;97283.56;;;24.17;54.74
5062;BME280;2351;50.812;12.872;2023-09-18T13:56:08;97281.38;;;24.02;56.64
5062;BME280;2351;50.812;12.872;2023-09-18T13:58:40;97296.94;;;23.88;57.23
5062;BME280;2351;50.812;12.872;2023-09-18T14:01:12;97305.16;;;23.69;59.02
5062;BME280;2351;50.812;12.872;2023-09-18T14:03:47;97300.03;;;23.37;60.10
5062;BME280;2351;50.812;12.872;2023-09-18T14:06:19;97303.97;;;23.23;60.78
5062;BME280;2351;50.812;12.872;2023-09-18T14:08:50;97301.69;;;23.20;61.32
5062;BME280;2351;50.812;12.872;2023-09-18T14:11:22;97298.84;;;23.14;61.81
5062;BME280;2351;50.812;12.872;2023-09-18T14:13:54;97293.56;;;23.08;62.42
5062;BME280;2351;50.812;12.872;2023-09-18T14:16:26;97286.75;;;23.05;63.24
5062;BME280;2351;50.812;12.872;2023-09-18T14:18:59;97290.81;;;22.96;64.11
5062;BME280;2351;50.812;12.872;2023-09-18T14:21:30;97295.47;;;22.89;64.46
5062;BME280;2351;50.812;12.872;2023-09-18T14:24:04;97291.56;;;22.84;64.62
5062;BME280;2351;50.812;12.872;2023-09-18T14:26:37;97293.16;;;22.74;65.81
5062;BME280;2351;50.812;12.872;2023-09-18T14:29:11;97296.25;;;22.59;66.13
5062;BME280;2351;50.812;12.872;2023-09-18T14:31:43;97296.09;;;22.53;66.26
5062;BME280;2351;50.812;12.872;2023-09-18T14:34:17;97295.59;;;22.45;66.76
5062;BME280;2351;50.812;12.872;2023-09-18T14:36:49;97300.78;;;22.39;67.57
5062;BME280;2351;50.812;12.872;2023-09-18T14:39:21;97306.41;;;22.38;67.99
5062;BME280;2351;50.812;12.872;2023-09-18T14:41:52;97301.06;;;22.31;68.61
5062;BME280;2351;50.812;12.872;2023-09-18T14:44:24;97301.81;;;22.20;70.15
5062;BME280;2351;50.812;12.872;2023-09-18T14:46:56;97294.69;;;22.07;70.59
5062;BME280;2351;50.812;12.872;2023-09-18T14:49:29;97304.75;;;21.93;72.06
5062;BME280;2351;50.812;12.872;2023-09-18T14:52:01;97307.78;;;21.78;72.69
5062;BME280;2351;50.812;12.872;2023-09-18T14:54:33;97306.63;;;21.67;74.13
5062;BME280;2351;50.812;12.872;2023-09-18T14:57:05;97308.56;;;21.53;75.17
5062;BME280;2351;50.812;12.872;2023-09-18T14:59:37;97311.34;;;21.40;76.37
5062;BME280;2351;50.812;12.872;2023-09-18T15:02:09;97304.00;;;21.28;77.02
5062;BME280;2351;50.812;12.872;2023-09-18T15:04:43;97308.19;;;21.17;78.38
5062;BME280;2351;50.812;12.872;2023-09-18T15:07:15;97310.13;;;21.03;79.38
5062;BME280;2351;50.812;12.872;2023-09-18T15:09:47;97314.75;;;20.89;81.00
5062;BME280;2351;50.812;12.872;2023-09-18T15:12:19;97302.34;;;20.75;82.31
5062;BME280;2351;50.812;12.872;2023-09-18T15:14:51;97303.84;;;20.64;83.95
5062;BME280;2351;50.812;12.872;2023-09-18T15:17:22;97310.69;;;20.53;85.00
5062;BME280;2351;50.812;12.872;2023-09-18T15:19:57;97307.41;;;20.44;86.56